Aérodrome :
LOGIN :

S'inscrire | Disclaimer

   EN    FR    IT 

 










Légende :    VFR   VFR Marginal   IFR   IFR Intensif   IFR Très Intensif
Visi : 
Plafond : 
>= 8 km
>= 3000ft
5 à 8 km
1000 à 3000 ft
1500m à 5 km
500 à 1000 ft
800 à 1500m
200 à 500 ft
< 800m
< 200 ft
Symboles :   Orages  Brouillard  Fortes neiges  Fortes précipitations  Vent > 20 kt
SIGMETs :   Divers  Orages  Givrage  Turbulence  Onde Orograph.  Cendres Volcan.







- Altitude de l'aérodrome : 194 ft


EBCV - Chièvres

DERNIER METAR :
  • 291255Z AUTO 21010KT 9999 BKN034/// 15/09 Q1026 BLU

METARs EXPIRÉS :
  • 291225Z AUTO 22009KT 9999 BKN029/// 15/08 Q1026 BLU
  • 291155Z AUTO 24010KT 9999 OVC024/// 14/09 Q1026 WHT
  • 291125Z AUTO 23009KT 9999 OVC024/// 13/08 Q1026 WHT
  • 291055Z AUTO 22010KT 9999 OVC024/// 13/08 Q1026 WHT
  • 291033Z AUTO 22009KT 9999 OVC024/// 13/08 Q1026 WHT

TAF TAF EBCV
Valide du 29 à 13h jusqu'au 29 à 22h UTC


291141Z 2913/2922 21006KT 9999 BKN035
TEMPO 2913/2916 23010KT BKN022
Pas de NOTAMs connus pour ce terrain.



MET'MAP, la Météo Aéronautique d'un coup d'oeil ! - Copyright ORBIFLY Décembre 2007 - Disclaimer

ORBIFLY MET'MAP TEAM :

Programmation & Développement : Alexandra Zaïnal
Conception & Développement : Baudouin d'Aumeries
Co-Programmation & Développement : Marc-Olivier Méhu
Soutien technique & logistique : Manuel Goepfert

Contact : metmap@orbifly.com




SOURCES & CREDITS :

   NOAA